Time;durP1;ratioP1;P1;durP2;ratioP2;P2;SDS_P1;SDS_P2;PMS_P1;PMS_P2;Temp;Humidity;BMP_temperature;BMP_pressure;BME280_temperature;BME280_humidity;BME280_pressure;Samples;Min_cycle;Max_cycle;Signal;HPM_P1;HPM_P2
2023/08/22 00:01:31;;;;;;;3.95;3.20;;;;;;;23.72;100.00;97682.00;5054993;28;20415;-73
2023/08/22 00:03:57;;;;;;;3.63;3.13;;;;;;;23.70;100.00;97678.81;5073132;28;20519;-73
2023/08/22 00:06:24;;;;;;;3.22;2.92;;;;;;;23.68;100.00;97687.25;5077440;28;20417;-73
2023/08/22 00:08:51;;;;;;;5.05;3.17;;;;;;;23.67;100.00;97684.91;5093368;28;20406;-74
2023/08/22 00:11:17;;;;;;;3.80;3.28;;;;;;;23.65;100.00;97687.13;5093147;28;20477;-73
2023/08/22 00:13:44;;;;;;;4.57;3.40;;;;;;;23.61;100.00;97687.00;5086092;28;20539;-73
2023/08/22 00:16:10;;;;;;;4.25;3.38;;;;;;;23.56;100.00;97689.09;5071840;28;20407;-73
2023/08/22 00:18:36;;;;;;;4.40;3.85;;;;;;;23.52;100.00;97683.56;5072597;28;20746;-73
2023/08/22 00:21:02;;;;;;;16.17;3.85;;;;;;;23.48;100.00;97686.13;5081175;28;20395;-74
2023/08/22 00:23:28;;;;;;;4.00;3.58;;;;;;;23.46;100.00;97684.81;5072815;28;20494;-72
2023/08/22 00:25:56;;;;;;;4.00;3.07;;;;;;;23.43;100.00;97680.09;5072667;28;20517;-74
2023/08/22 00:28:22;;;;;;;4.75;3.50;;;;;;;23.42;100.00;97682.00;5072699;28;20445;-74
2023/08/22 00:30:51;;;;;;;4.15;3.55;;;;;;;23.40;100.00;97680.72;5072438;28;20416;-73
2023/08/22 00:33:17;;;;;;;4.38;3.50;;;;;;;23.38;100.00;97672.19;5072639;28;20429;-74
2023/08/22 00:35:43;;;;;;;5.05;3.75;;;;;;;23.34;100.00;97674.72;5072587;28;20492;-74
2023/08/22 00:38:10;;;;;;;7.82;4.13;;;;;;;23.30;100.00;97678.44;5091708;28;20537;-74
2023/08/22 00:40:36;;;;;;;5.80;3.60;;;;;;;23.27;100.00;97668.25;5092863;28;20397;-73
2023/08/22 00:43:04;;;;;;;4.18;3.63;;;;;;;23.24;100.00;97675.09;5092501;28;20495;-73
2023/08/22 00:45:30;;;;;;;3.95;3.50;;;;;;;23.23;100.00;97676.22;5092496;28;20413;-73
2023/08/22 00:47:57;;;;;;;4.10;3.70;;;;;;;;;;5092474;28;20923;-73
2023/08/22 00:50:24;;;;;;;4.00;3.38;;;;;;;23.16;100.00;97663.22;5092342;28;20410;-73
2023/08/22 00:52:50;;;;;;;4.45;3.20;;;;;;;23.15;100.00;97663.56;5075915;28;20410;-73
2023/08/22 00:55:17;;;;;;;4.10;3.30;;;;;;;23.14;100.00;97660.06;5072153;28;20422;-73
2023/08/22 00:57:43;;;;;;;3.92;3.50;;;;;;;23.15;100.00;97660.88;5072283;28;20396;-74
2023/08/22 01:00:11;;;;;;;3.50;3.15;;;;;;;23.12;100.00;97659.59;5071884;28;20482;-73
2023/08/22 01:02:38;;;;;;;4.22;3.42;;;;;;;23.12;100.00;97656.09;5072142;28;20507;-73
2023/08/22 01:05:05;;;;;;;3.45;3.15;;;;;;;23.10;100.00;97656.44;5072163;28;20415;-73
2023/08/22 01:07:37;;;;;;;4.85;3.33;;;;;;;23.08;100.00;97658.66;5072231;28;20528;-73
2023/08/22 01:10:10;;;;;;;3.95;3.00;;;;;;;23.05;100.00;97659.31;5071911;28;20399;-73
2023/08/22 01:12:44;;;;;;;4.38;2.95;;;;;;;23.01;100.00;97647.56;5071969;28;20431;-73
2023/08/22 01:15:20;;;;;;;3.50;3.20;;;;;;;22.98;100.00;97656.34;5072020;28;20391;-73
2023/08/22 01:17:48;;;;;;;4.18;3.47;;;;;;;22.97;100.00;97645.84;5071931;28;20805;-73
2023/08/22 01:20:15;;;;;;;3.80;3.20;;;;;;;22.94;100.00;97644.59;5071661;28;20418;-73
2023/08/22 01:22:43;;;;;;;6.43;3.60;;;;;;;22.92;100.00;97646.84;5071511;28;20399;-73
2023/08/22 01:25:10;;;;;;;4.13;3.28;;;;;;;22.89;100.00;97641.28;5071637;28;20395;-73
2023/08/22 01:27:43;;;;;;;3.15;2.85;;;;;;;22.87;100.00;97641.59;5071071;28;20506;-73
2023/08/22 01:30:15;;;;;;;2.72;2.53;;;;;;;22.85;100.00;97641.16;5071461;28;20870;-73
2023/08/22 01:32:44;;;;;;;3.15;2.85;;;;;;;22.82;100.00;97647.19;5086620;28;20394;-73
2023/08/22 01:35:13;;;;;;;3.60;3.20;;;;;;;22.76;100.00;97643.09;5091728;28;20413;-73
2023/08/22 01:37:42;;;;;;;6.95;3.80;;;;;;;22.75;100.00;97634.19;5091850;28;20393;-73
2023/08/22 01:40:10;;;;;;;4.82;3.60;;;;;;;22.73;100.00;97647.22;5091356;28;20402;-73
2023/08/22 01:42:36;;;;;;;5.75;3.83;;;;;;;22.71;100.00;97646.72;5067072;28;20407;-73
2023/08/22 01:45:03;;;;;;;4.25;3.30;;;;;;;22.68;100.00;97647.38;5081006;28;20397;-73
2023/08/22 01:47:29;;;;;;;4.25;3.22;;;;;;;22.66;100.00;97644.19;5091209;28;20410;-73
2023/08/22 01:49:56;;;;;;;3.78;3.10;;;;;;;22.65;100.00;97650.72;5082888;28;20402;-74
2023/08/22 01:52:22;;;;;;;3.40;2.80;;;;;;;22.66;100.00;97646.09;5078836;28;20916;-74
2023/08/22 01:54:50;;;;;;;3.03;2.70;;;;;;;22.64;100.00;97641.03;5070989;28;20414;-73
2023/08/22 01:57:16;;;;;;;4.25;2.78;;;;;;;22.65;100.00;97639.13;5070948;28;20406;-74
2023/08/22 01:59:42;;;;;;;4.35;3.05;;;;;;;22.62;100.00;97632.47;5077420;28;20420;-74
2023/08/22 02:02:09;;;;;;;3.97;3.07;;;;;;;22.59;100.00;97637.72;5091062;28;20401;-74
2023/08/22 02:04:35;;;;;;;3.63;2.95;;;;;;;22.54;100.00;97641.41;5091215;28;20452;-74
2023/08/22 02:07:01;;;;;;;3.65;2.92;;;;;;;22.52;100.00;97640.91;5091000;28;20475;-74
2023/08/22 02:09:29;;;;;;;5.93;3.20;;;;;;;22.50;100.00;97639.66;5090153;28;21641;-73
2023/08/22 02:11:56;;;;;;;3.80;3.10;;;;;;;22.44;100.00;97646.34;5090917;28;20402;-73
2023/08/22 02:14:23;;;;;;;4.05;3.03;;;;;;;22.40;100.00;97635.41;5091019;28;20409;-73
2023/08/22 02:16:49;;;;;;;3.78;2.50;;;;;;;22.38;100.00;97633.03;5090987;28;20876;-73
2023/08/22 02:19:16;;;;;;;5.45;3.00;;;;;;;22.37;100.00;97633.34;5091062;28;20415;-73
2023/08/22 02:21:42;;;;;;;3.20;2.30;;;;;;;22.35;100.00;97632.84;5090716;28;20394;-73
2023/08/22 02:24:08;;;;;;;3.50;2.58;;;;;;;22.33;100.00;97632.38;5088393;28;20425;-73
2023/08/22 02:26:35;;;;;;;5.32;2.95;;;;;;;22.30;100.00;97631.13;5052681;28;20416;-73
2023/08/22 02:29:03;;;;;;;3.22;2.83;;;;;;;22.29;100.00;97631.44;5052770;28;20422;-73
2023/08/22 02:31:29;;;;;;;3.22;2.75;;;;;;;22.28;100.00;97632.56;5070279;28;20433;-74
2023/08/22 02:33:55;;;;;;;4.40;2.67;;;;;;;22.27;100.00;97633.66;5070543;28;20406;-73
2023/08/22 02:36:21;;;;;;;3.00;2.70;;;;;;;22.24;100.00;97626.25;5070497;28;20400;-73
2023/08/22 02:38:48;;;;;;;2.95;2.60;;;;;;;22.22;100.00;97634.63;5070339;28;20419;-73
2023/08/22 02:41:14;;;;;;;2.95;2.47;;;;;;;22.20;100.00;97627.97;5069504;28;20403;-73
2023/08/22 02:43:40;;;;;;;3.55;2.70;;;;;;;22.18;100.00;97630.97;5070529;28;20395;-73
2023/08/22 02:46:08;;;;;;;3.17;2.60;;;;;;;22.17;100.00;97639.41;5072161;28;20454;-73
2023/08/22 02:48:34;;;;;;;3.20;2.45;;;;;;;22.14;100.00;97634.66;5090605;28;20394;-73
2023/08/22 02:51:00;;;;;;;2.95;2.50;;;;;;;22.10;100.00;97645.28;5090218;28;20398;-73
2023/08/22 02:53:26;;;;;;;5.22;2.83;;;;;;;22.06;100.00;97651.63;5090483;28;20404;-73
2023/08/22 02:55:52;;;;;;;5.50;2.53;;;;;;;22.04;100.00;97649.25;5090245;28;20398;-73
2023/08/22 02:58:19;;;;;;;4.85;2.80;;;;;;;22.02;100.00;97639.91;5090562;28;20481;-73
2023/08/22 03:00:46;;;;;;;4.53;3.17;;;;;;;21.99;100.00;97639.44;5064713;28;20407;-73
2023/08/22 03:03:14;;;;;;;3.20;2.55;;;;;;;21.97;100.00;97641.63;5070008;28;20404;-73
2023/08/22 03:05:40;;;;;;;3.60;2.60;;;;;;;21.95;100.00;97632.28;5070235;28;20783;-73
2023/08/22 03:08:07;;;;;;;3.63;2.27;;;;;;;21.95;100.00;97629.59;5088827;28;20684;-73
2023/08/22 03:10:33;;;;;;;3.83;2.50;;;;;;;21.94;100.00;97630.69;5090240;28;20398;-73
2023/08/22 03:12:59;;;;;;;3.30;2.42;;;;;;;21.93;100.00;97634.50;5090123;28;20407;-73
2023/08/22 03:15:25;;;;;;;3.50;2.70;;;;;;;21.91;100.00;97632.09;5090246;28;20998;-73
2023/08/22 03:17:52;;;;;;;3.03;2.55;;;;;;;21.90;100.00;97632.41;5090233;28;20404;-73
2023/08/22 03:20:19;;;;;;;4.25;2.63;;;;;;;21.87;100.00;97625.00;5090063;28;20405;-73
2023/08/22 03:22:45;;;;;;;2.85;2.60;;;;;;;21.84;100.00;97631.78;5090097;28;20907;-73
2023/08/22 03:25:11;;;;;;;3.10;2.63;;;;;;;21.81;100.00;97632.41;5090050;28;20405;-73
2023/08/22 03:27:38;;;;;;;4.68;3.25;;;;;;;21.80;100.00;97636.22;5090047;28;20962;-73
2023/08/22 03:30:05;;;;;;;3.83;3.17;;;;;;;21.78;100.00;97633.06;5089787;28;20426;-73
2023/08/22 03:32:31;;;;;;;3.75;2.63;;;;;;;21.76;100.00;97631.78;5090053;28;20398;-73
2023/08/22 03:34:57;;;;;;;4.00;3.00;;;;;;;21.74;100.00;97631.31;5071860;28;20907;-73
2023/08/22 03:37:25;;;;;;;4.00;2.80;;;;;;;21.73;100.00;97629.72;5090011;28;20433;-73
2023/08/22 03:39:51;;;;;;;3.20;2.60;;;;;;;21.72;100.00;97622.78;5089940;28;20891;-73
2023/08/22 03:42:17;;;;;;;3.23;2.60;;;;;;;21.71;100.00;97627.38;5090186;28;20429;-73
2023/08/22 03:44:43;;;;;;;3.35;2.78;;;;;;;21.69;100.00;97632.28;5089984;28;20390;-73
2023/08/22 03:47:09;;;;;;;3.00;2.25;;;;;;;21.68;100.00;97629.88;5089982;28;20895;-73
2023/08/22 03:49:36;;;;;;;3.47;2.58;;;;;;;21.67;100.00;97634.47;5090057;28;20397;-73
2023/08/22 03:52:03;;;;;;;3.60;2.55;;;;;;;21.66;100.00;97626.72;5092247;28;20402;-73
2023/08/22 03:54:30;;;;;;;3.70;2.40;;;;;;;21.65;100.00;97631.34;5093698;28;20394;-73
2023/08/22 03:56:56;;;;;;;3.60;2.63;;;;;;;21.64;100.00;97632.44;5085049;28;20398;-73
2023/08/22 03:59:23;;;;;;;3.42;2.60;;;;;;;21.63;100.00;97626.25;5089373;28;20475;-73
2023/08/22 04:01:49;;;;;;;4.55;3.10;;;;;;;21.63;100.00;97626.25;5073022;28;20403;-73
2023/08/22 04:04:16;;;;;;;4.35;2.70;;;;;;;21.61;100.00;97628.47;5093155;28;20827;-73
2023/08/22 04:06:43;;;;;;;4.10;3.10;;;;;;;21.59;100.00;97629.88;5093458;28;20779;-73
2023/08/22 04:09:09;;;;;;;4.13;2.88;;;;;;;21.57;100.00;97621.34;5093436;28;20402;-73
2023/08/22 04:11:38;;;;;;;3.53;2.70;;;;;;;21.54;100.00;97621.97;5093084;28;20404;-73
2023/08/22 04:14:04;;;;;;;3.53;2.92;;;;;;;21.52;100.00;97622.28;5093200;28;20498;-73
2023/08/22 04:16:30;;;;;;;3.15;2.83;;;;;;;21.48;100.00;97621.34;5093355;28;20473;-73
2023/08/22 04:18:56;;;;;;;2.80;2.40;;;;;;;21.47;100.00;97633.22;5093159;28;20425;-73
2023/08/22 04:21:22;;;;;;;3.10;2.80;;;;;;;21.45;100.00;97629.22;5092953;28;20398;-73
2023/08/22 04:23:49;;;;;;;4.45;3.00;;;;;;;21.43;100.00;97636.84;5093172;28;20394;-73
2023/08/22 04:26:15;;;;;;;4.97;3.10;;;;;;;21.39;100.00;97643.97;5093016;28;20460;-73
2023/08/22 04:28:42;;;;;;;4.40;3.20;;;;;;;21.37;100.00;97643.47;5086232;28;20404;-73
2023/08/22 04:31:08;;;;;;;4.07;2.92;;;;;;;21.34;100.00;97641.44;5072477;28;20408;-73
2023/08/22 04:33:35;;;;;;;4.25;3.30;;;;;;;21.32;100.00;97649.81;5072717;28;20399;-73
2023/08/22 04:36:01;;;;;;;4.13;3.10;;;;;;;21.30;100.00;97646.63;5082238;28;20875;-73
2023/08/22 04:38:27;;;;;;;3.65;2.90;;;;;;;21.28;100.00;97648.84;5092852;28;20426;-73
2023/08/22 04:40:53;;;;;;;4.00;3.22;;;;;;;21.24;100.00;97648.69;5092414;28;20410;-72
2023/08/22 04:43:19;;;;;;;3.35;2.88;;;;;;;21.22;100.00;97656.28;5092754;28;20797;-73
2023/08/22 04:45:50;;;;;;;4.38;3.10;;;;;;;21.19;100.00;97661.50;5092776;28;20397;-73
2023/08/22 04:48:16;;;;;;;4.47;2.90;;;;;;;21.16;100.00;97665.63;5092605;28;20786;-73
2023/08/22 04:50:42;;;;;;;4.53;2.78;;;;;;;21.17;100.00;97663.72;5092468;28;20412;-73
2023/08/22 04:53:08;;;;;;;3.42;2.83;;;;;;;21.18;100.00;97659.91;5092412;28;20409;-73
2023/08/22 04:55:34;;;;;;;3.58;2.83;;;;;;;21.18;100.00;97662.63;5092416;28;20489;-73
2023/08/22 04:58:00;;;;;;;3.40;2.58;;;;;;;21.20;100.00;97663.09;5092420;28;20406;-73
2023/08/22 05:00:27;;;;;;;4.20;3.20;;;;;;;21.21;100.00;97664.66;5092357;28;20876;-73
2023/08/22 05:02:54;;;;;;;4.60;2.83;;;;;;;21.21;100.00;97664.66;5083027;28;20411;-73
2023/08/22 05:05:20;;;;;;;3.28;2.50;;;;;;;21.20;100.00;97669.25;5072054;28;20396;-73
2023/08/22 05:07:46;;;;;;;2.90;2.60;;;;;;;21.20;100.00;97673.88;5071968;28;20473;-73
2023/08/22 05:10:13;;;;;;;3.95;2.80;;;;;;;21.20;100.00;97677.34;5071623;28;20497;-73
2023/08/22 05:12:39;;;;;;;2.80;2.50;;;;;;;21.22;100.00;97677.81;5071861;28;20845;-73
2023/08/22 05:15:06;;;;;;;3.28;2.78;;;;;;;21.26;100.00;97679.91;5071851;28;20400;-74
2023/08/22 05:17:32;;;;;;;4.53;3.10;;;;;;;21.27;100.00;97681.50;5071854;28;20407;-73
2023/08/22 05:20:00;;;;;;;3.60;2.83;;;;;;;21.28;100.00;97680.34;5071572;28;20454;-74
2023/08/22 05:22:26;;;;;;;3.40;2.75;;;;;;;21.32;100.00;97682.13;5071659;28;20400;-73
2023/08/22 05:24:52;;;;;;;2.92;2.58;;;;;;;21.38;100.00;97677.38;5071672;28;20418;-73
2023/08/22 05:27:18;;;;;;;3.13;2.65;;;;;;;21.43;100.00;97672.63;5071519;28;20915;-73
2023/08/22 05:29:44;;;;;;;3.15;2.60;;;;;;;21.46;100.00;97680.09;5071500;28;20400;-73
2023/08/22 05:32:11;;;;;;;2.60;2.30;;;;;;;21.53;100.00;97675.03;5071523;28;20403;-74
2023/08/22 05:34:37;;;;;;;5.65;2.50;;;;;;;21.60;100.00;97672.69;5071548;28;20406;-74
2023/08/22 05:37:04;;;;;;;4.80;2.35;;;;;;;21.68;100.00;97673.78;5071402;28;20453;-74
2023/08/22 05:39:31;;;;;;;3.63;2.80;;;;;;;21.78;100.00;97684.28;5071252;28;20402;-73
2023/08/22 05:41:57;;;;;;;3.30;2.70;;;;;;;21.84;100.00;97672.22;5071079;28;20927;-73
2023/08/22 05:44:23;;;;;;;3.28;2.45;;;;;;;21.91;100.00;97672.53;5071340;28;20757;-73
2023/08/22 05:46:49;;;;;;;3.85;2.40;;;;;;;21.98;100.00;97672.09;5071208;28;20416;-73
2023/08/22 05:49:15;;;;;;;3.90;2.60;;;;;;;22.04;100.00;97675.41;5071230;28;20400;-74
2023/08/22 05:51:41;;;;;;;4.85;3.00;;;;;;;22.08;100.00;97677.16;5070891;28;20494;-73
2023/08/22 05:54:09;;;;;;;2.70;2.40;;;;;;;22.12;100.00;97671.91;5071010;28;20403;-71
2023/08/22 05:56:35;;;;;;;5.25;2.70;;;;;;;22.14;100.00;97678.59;5070835;28;20500;-73
2023/08/22 05:59:01;;;;;;;2.67;2.47;;;;;;;22.18;100.00;97684.13;5070893;28;20464;-74
2023/08/22 06:01:27;;;;;;;2.80;2.50;;;;;;;22.21;100.00;97687.00;5070585;28;20403;-74
2023/08/22 06:03:54;;;;;;;2.72;2.47;;;;;;;22.29;100.00;97685.38;5070751;28;20483;-73
2023/08/22 06:06:20;;;;;;;3.17;2.58;;;;;;;22.35;100.00;97678.72;5070756;28;20476;-74
2023/08/22 06:08:47;;;;;;;2.83;2.50;;;;;;;22.44;100.00;97684.09;5070963;28;20435;-74
2023/08/22 06:11:14;;;;;;;3.00;2.70;;;;;;;22.53;100.00;97682.19;5070423;28;20909;-73
2023/08/22 06:13:41;;;;;;;4.70;2.47;;;;;;;22.61;100.00;97679.47;5070716;28;20403;-73
2023/08/22 06:16:07;;;;;;;4.65;2.50;;;;;;;22.71;100.00;97683.69;5070592;28;20427;-73
2023/08/22 06:18:33;;;;;;;2.97;2.63;;;;;;;22.78;100.00;97681.31;5070789;28;20446;-73
2023/08/22 06:21:00;;;;;;;2.67;2.40;;;;;;;22.83;100.00;97678.47;5070314;28;20396;-73
2023/08/22 06:23:26;;;;;;;3.80;3.00;;;;;;;22.89;100.00;97681.78;5070652;28;20396;-74
2023/08/22 06:25:52;;;;;;;3.38;2.67;;;;;;;22.92;100.00;97673.03;5070580;28;20427;-73
2023/08/22 06:28:20;;;;;;;3.40;2.90;;;;;;;22.96;100.00;97676.66;5070660;28;20477;-72
2023/08/22 06:30:46;;;;;;;3.65;3.05;;;;;;;23.00;100.00;97672.22;5070460;28;20407;-73
2023/08/22 06:33:12;;;;;;;3.75;3.30;;;;;;;23.06;100.00;97670.91;5070335;28;20482;-73
2023/08/22 06:35:38;;;;;;;4.15;3.20;;;;;;;23.11;100.00;97681.53;5070390;28;20396;-73
2023/08/22 06:38:04;;;;;;;4.13;3.30;;;;;;;23.17;100.00;97682.91;5080045;28;20429;-73
2023/08/22 06:40:34;;;;;;;3.58;3.03;;;;;;;23.24;100.00;97680.50;5090309;28;20899;-73
2023/08/22 06:43:00;;;;;;;6.10;3.35;;;;;;;23.29;100.00;97674.94;5090330;28;20890;-73
2023/08/22 06:45:27;;;;;;;4.85;3.55;;;;;;;23.33;100.00;97681.25;5090650;28;20401;-73
2023/08/22 06:47:53;;;;;;;4.65;3.70;;;;;;;23.38;100.00;97677.59;5090320;28;20418;-73
2023/08/22 06:50:19;;;;;;;4.65;3.47;;;;;;;23.41;100.00;97683.13;5090474;28;20579;-73
2023/08/22 06:52:46;;;;;;;5.13;3.70;;;;;;;23.47;100.00;97681.00;5090353;28;20402;-73
2023/08/22 06:55:12;;;;;;;3.95;3.25;;;;;;;23.53;100.00;97687.88;5090512;28;20829;-73
2023/08/22 06:57:38;;;;;;;3.67;3.25;;;;;;;23.59;100.00;97693.84;5090505;28;20515;-73
2023/08/22 07:00:13;;;;;;;4.95;3.80;;;;;;;23.64;100.00;97691.75;5088507;28;20406;-73
2023/08/22 07:02:41;;;;;;;4.65;3.45;;;;;;;23.70;100.00;97698.53;5076548;28;20390;-74
2023/08/22 07:05:08;;;;;;;4.85;3.58;;;;;;;23.74;100.00;97691.38;5079926;28;20615;-73
2023/08/22 07:07:34;;;;;;;3.78;3.35;;;;;;;23.78;100.00;97695.00;5069968;28;20407;-73
2023/08/22 07:10:00;;;;;;;4.85;3.42;;;;;;;23.85;100.00;97697.16;5087713;28;20425;-73
2023/08/22 07:12:27;;;;;;;4.20;3.70;;;;;;;23.91;100.00;97701.25;5090110;28;20438;-73
2023/08/22 07:14:53;;;;;;;3.83;3.07;;;;;;;24.00;100.00;97698.47;5090126;28;20809;-73
2023/08/22 07:17:19;;;;;;;6.30;3.73;;;;;;;24.09;100.00;97699.22;5090454;28;20400;-73
2023/08/22 07:19:47;;;;;;;3.67;3.10;;;;;;;24.20;100.00;97703.94;5090061;28;20405;-73
2023/08/22 07:22:13;;;;;;;3.95;3.13;;;;;;;24.32;100.00;97705.88;5090085;28;20460;-73
2023/08/22 07:24:39;;;;;;;3.42;2.97;;;;;;;24.44;100.00;97705.13;5090137;28;20402;-73
2023/08/22 07:27:05;;;;;;;3.83;3.33;;;;;;;24.54;100.00;97700.09;5092697;28;20414;-73
2023/08/22 07:29:31;;;;;;;2.92;2.38;;;;;;;24.63;100.00;97702.72;5094072;28;20501;-73
2023/08/22 07:31:59;;;;;;;3.75;2.45;;;;;;;24.72;100.00;97697.22;5093364;28;20485;-73
2023/08/22 07:34:26;;;;;;;3.20;2.90;;;;;;;24.80;100.00;97699.84;5073836;28;20442;-73
2023/08/22 07:36:53;;;;;;;2.97;2.55;;;;;;;24.88;100.00;97704.34;5073532;28;20405;-73
2023/08/22 07:39:20;;;;;;;3.17;2.57;;;;;;;24.95;100.00;97706.53;5073690;28;20490;-73
2023/08/22 07:41:46;;;;;;;4.10;2.60;;;;;;;25.03;100.00;97701.00;5080969;28;20397;-73
2023/08/22 07:44:13;;;;;;;2.80;2.42;;;;;;;25.12;100.00;97702.81;5093773;28;20409;-73
2023/08/22 07:46:40;;;;;;;2.95;2.30;;;;;;;25.20;100.00;97708.13;5093763;28;20410;-73
2023/08/22 07:49:07;;;;;;;2.38;2.17;;;;;;;25.28;100.00;97706.44;5093825;28;20485;-73
2023/08/22 07:51:35;;;;;;;2.67;2.45;;;;;;;25.34;100.00;97713.22;5079490;28;20483;-73
2023/08/22 07:54:03;;;;;;;2.60;2.40;;;;;;;25.42;100.00;97707.69;5073320;28;20710;-73
2023/08/22 07:56:30;;;;;;;3.80;2.80;;;;;;;25.49;100.00;97709.81;5073220;28;20400;-73
2023/08/22 07:58:56;;;;;;;3.30;2.75;;;;;;;25.59;100.00;97706.69;5073274;28;20431;-73
2023/08/22 08:01:23;;;;;;;2.78;2.53;;;;;;;25.71;100.00;97708.59;5073135;28;20461;-73
2023/08/22 08:03:49;;;;;;;2.60;2.30;;;;;;;25.82;100.00;97706.97;5073200;28;20495;-73
2023/08/22 08:06:15;;;;;;;2.50;2.30;;;;;;;25.92;100.00;97703.81;5073064;28;20874;-73
2023/08/22 08:08:41;;;;;;;3.13;2.42;;;;;;;26.01;100.00;97711.81;5073126;28;20432;-73
2023/08/22 08:11:09;;;;;;;3.30;2.30;;;;;;;26.11;100.00;97709.38;5072841;28;20882;-73
2023/08/22 08:13:35;;;;;;;2.70;2.20;;;;;;;26.20;100.00;97701.09;5086870;28;20398;-73
2023/08/22 08:16:02;;;;;;;2.45;2.15;;;;;;;26.29;100.00;97704.50;5093315;28;20425;-73
2023/08/22 08:18:28;;;;;;;2.60;2.05;;;;;;;26.38;100.00;97707.06;5093224;28;20390;-73
2023/08/22 08:20:55;;;;;;;2.50;2.28;;;;;;;26.47;100.00;97713.91;5084354;28;20491;-73
2023/08/22 08:23:21;;;;;;;4.03;2.60;;;;;;;26.54;100.00;97711.38;5076789;28;20451;-73
2023/08/22 08:25:48;;;;;;;3.10;2.50;;;;;;;26.62;100.00;97711.56;5085498;28;20507;-74
2023/08/22 08:28:16;;;;;;;6.15;3.63;;;;;;;26.72;100.00;97714.59;5072762;28;20499;-73
2023/08/22 08:30:42;;;;;;;7.78;4.53;;;;;;;26.78;100.00;97713.19;5072581;28;20418;-73
2023/08/22 08:33:09;;;;;;;3.88;3.13;;;;;;;26.88;100.00;97718.13;5072621;28;20402;-73
2023/08/22 08:35:35;;;;;;;4.53;3.17;;;;;;;26.92;100.00;97710.84;5078445;28;20401;-73
2023/08/22 08:38:01;;;;;;;3.30;2.97;;;;;;;27.02;100.00;97709.56;5091547;28;20394;-74
2023/08/22 08:40:34;;;;;;;3.92;2.80;;;;;;;27.11;100.00;97712.91;5092646;28;20398;-73
2023/08/22 08:43:00;;;;;;;2.75;2.55;;;;;;;27.19;100.00;97708.41;5091663;28;20506;-73
2023/08/22 08:45:32;;;;;;;2.53;2.33;;;;;;;27.26;100.00;97717.53;5072450;28;20438;-74
2023/08/22 08:47:59;;;;;;;2.70;2.15;;;;;;;27.34;100.00;97710.34;5072137;28;20424;-74
2023/08/22 08:50:26;;;;;;;2.60;2.20;;;;;;;27.41;100.00;97710.50;5071990;28;20388;-74
2023/08/22 08:52:53;;;;;;;3.95;2.78;;;;;;;27.47;100.00;97711.03;5072193;28;20778;-73
2023/08/22 08:55:19;;;;;;;3.10;2.30;;;;;;;27.55;100.00;97710.06;5072265;28;20749;-74
2023/08/22 08:57:46;;;;;;;2.83;2.53;;;;;;;27.63;100.00;97707.16;5071982;28;20482;-74
2023/08/22 09:00:15;;;;;;;2.65;2.45;;;;;;;27.72;100.00;97699.59;5071772;28;21682;-74
2023/08/22 09:02:43;;;;;;;2.47;2.28;;;;;;;27.85;100.00;97702.97;5078776;28;20397;-74
2023/08/22 09:05:11;;;;;;;2.97;2.47;;;;;;;27.93;100.00;97699.28;5091996;28;20402;-73
2023/08/22 09:07:38;;;;;;;3.08;2.67;;;;;;;28.01;100.00;97697.47;5091927;28;20495;-73
2023/08/22 09:10:05;;;;;;;3.00;2.70;;;;;;;28.13;100.00;97702.78;5091707;28;20483;-73
2023/08/22 09:12:33;;;;;;;3.30;2.72;;;;;;;28.21;100.00;97701.03;5092134;28;20756;-73
2023/08/22 09:15:00;;;;;;;2.85;2.60;;;;;;;28.32;100.00;97696.59;5064484;28;20904;-73
2023/08/22 09:17:29;;;;;;;5.13;2.58;;;;;;;28.41;100.00;97697.16;5071586;28;20453;-73
2023/08/22 09:19:56;;;;;;;2.83;2.40;;;;;;;28.50;100.00;97693.03;5080035;28;20398;-73
2023/08/22 09:22:31;;;;;;;3.33;2.80;;;;;;;28.59;100.00;97698.28;5091616;28;20448;-73
2023/08/22 09:24:58;;;;;;;4.05;3.00;;;;;;;28.68;100.00;97698.81;5090965;28;20390;-73
2023/08/22 09:27:26;;;;;;;2.63;2.42;;;;;;;28.78;100.00;97695.56;5071373;28;20519;-73
2023/08/22 09:29:52;;;;;;;3.50;2.60;;;;;;;28.90;100.00;97688.34;5071349;28;20411;-73
2023/08/22 09:32:23;;;;;;;2.97;2.60;;;;;;;29.01;100.00;97689.31;5071111;28;20403;-73
2023/08/22 09:34:53;;;;;;;4.75;2.65;;;;;;;29.16;100.00;97685.66;5087496;28;20409;-73
2023/08/22 09:37:30;;;;;;;3.55;3.03;;;;;;;29.24;100.00;97682.66;5091387;28;20394;-73
2023/08/22 09:39:57;;;;;;;4.60;3.45;;;;;;;29.38;100.00;97681.34;5091194;28;20451;-73
2023/08/22 09:42:26;;;;;;;3.30;3.00;;;;;;;29.46;100.00;97678.38;5091261;28;20406;-73
2023/08/22 09:44:54;;;;;;;4.05;2.85;;;;;;;29.57;100.00;97684.75;5091252;28;20400;-73
2023/08/22 09:47:22;;;;;;;4.00;3.10;;;;;;;29.68;100.00;97670.50;5091142;28;20420;-73
2023/08/22 09:49:55;;;;;;;6.50;3.70;;;;;;;29.80;100.00;97673.78;5090766;28;21040;-73
2023/08/22 09:52:22;;;;;;;5.80;3.35;;;;;;;29.77;100.00;97679.94;5087388;28;20395;-73
2023/08/22 09:54:50;;;;;;;4.15;3.50;;;;;;;29.81;100.00;97682.75;5070965;28;20436;-73
2023/08/22 09:57:17;;;;;;;4.10;2.80;;;;;;;29.87;100.00;97679.31;5052843;28;20406;-73
2023/08/22 09:59:45;;;;;;;3.80;2.60;;;;;;;29.88;100.00;97674.66;5070830;28;20486;-73
2023/08/22 10:02:11;;;;;;;3.63;3.10;;;;;;;29.78;100.00;97681.53;5070625;28;20400;-73
2023/08/22 10:04:39;;;;;;;5.32;3.65;;;;;;;29.63;100.00;97686.00;5085515;28;20942;-73
2023/08/22 10:07:05;;;;;;;8.18;4.30;;;;;;;29.55;100.00;97672.63;5090917;28;20496;-73
2023/08/22 10:09:32;;;;;;;3.20;2.90;;;;;;;29.57;100.00;97676.56;5090910;28;20879;-73
2023/08/22 10:12:05;;;;;;;4.15;2.85;;;;;;;29.46;100.00;97683.84;5090888;28;20413;-73
2023/08/22 10:14:34;;;;;;;3.90;2.90;;;;;;;29.41;100.00;97670.47;5090986;28;20551;-73
2023/08/22 10:17:01;;;;;;;3.78;2.90;;;;;;;29.53;100.00;97672.22;5089805;28;20385;-73
2023/08/22 10:19:29;;;;;;;5.03;2.83;;;;;;;29.64;100.00;97684.06;5070545;28;20403;-73
2023/08/22 10:22:04;;;;;;;3.77;2.70;;;;;;;29.53;100.00;97675.75;5087428;28;20768;-73
2023/08/22 10:24:31;;;;;;;3.28;2.95;;;;;;;29.47;100.00;97679.94;5090920;28;20436;-73
2023/08/22 10:27:03;;;;;;;3.60;2.85;;;;;;;29.60;100.00;97683.25;5090625;28;20497;-73
2023/08/22 10:29:35;;;;;;;3.60;2.90;;;;;;;29.82;100.00;97673.41;5090624;28;20479;-73
2023/08/22 10:32:20;;;;;;;4.18;3.40;;;;;;;30.05;100.00;97665.16;5090556;28;20428;-72
2023/08/22 10:35:26;;;;;;;2.83;2.60;;;;;;;30.17;100.00;97671.13;5090659;28;20398;-74
2023/08/22 10:37:54;;;;;;;2.60;2.37;;;;;;;30.12;100.00;97666.03;5090593;28;20443;-74
2023/08/22 10:40:31;;;;;;;4.43;3.03;;;;;;;29.95;100.00;97666.56;5090418;28;20413;-74
2023/08/22 10:43:20;;;;;;;3.15;2.60;;;;;;;29.91;100.00;97671.19;5090470;28;20398;-73
2023/08/22 10:45:50;;;;;;;3.28;2.67;;;;;;;30.02;100.00;97664.72;5084501;28;20967;-74
2023/08/22 10:48:18;;;;;;;4.82;3.13;;;;;;;30.19;100.00;97666.09;5090316;28;20414;-74
2023/08/22 10:50:47;;;;;;;4.47;2.78;;;;;;;30.42;100.00;97649.56;5090484;28;20401;-74
2023/08/22 10:53:21;;;;;;;3.72;2.80;;;;;;;30.67;100.00;97650.63;5090301;28;20394;-74
2023/08/22 10:55:49;;;;;;;2.90;2.60;;;;;;;30.81;100.00;97654.66;5074281;28;20419;-74
2023/08/22 10:58:36;;;;;;;4.40;2.70;;;;;;;30.70;100.00;97654.56;5070168;28;20765;-74
2023/08/22 11:01:06;;;;;;;3.67;2.40;;;;;;;30.55;100.00;97659.09;5070418;28;20403;-74
2023/08/22 11:03:33;;;;;;;6.93;2.58;;;;;;;30.48;100.00;97652.75;5090277;28;21021;-73
2023/08/22 11:05:59;;;;;;;5.43;2.90;;;;;;;30.38;100.00;97652.25;5090235;28;20509;-73
2023/08/22 11:08:25;;;;;;;3.97;3.10;;;;;;;30.32;100.00;97656.47;5090316;28;20413;-74
2023/08/22 11:10:53;;;;;;;3.15;2.70;;;;;;;30.50;100.00;97653.16;5090015;28;20410;-73
2023/08/22 11:13:19;;;;;;;4.15;3.13;;;;;;;30.77;100.00;97660.09;5086680;28;20486;-73
2023/08/22 11:15:50;;;;;;;5.63;4.10;;;;;;;31.01;97.07;97658.72;5070054;28;20396;-73
2023/08/22 11:18:17;;;;;;;5.03;3.42;;;;;;;31.17;95.73;97653.03;5089968;28;20386;-73
2023/08/22 11:20:51;;;;;;;3.75;3.20;;;;;;;31.09;95.16;97654.91;5074777;28;20480;-73
2023/08/22 11:23:17;;;;;;;3.28;2.97;;;;;;;30.99;95.34;97648.16;5069953;28;20406;-73
2023/08/22 11:25:44;;;;;;;7.30;3.63;;;;;;;30.85;94.86;97650.78;5070084;28;20400;-73
2023/08/22 11:28:10;;;;;;;3.50;3.20;;;;;;;30.77;95.23;97651.88;5072228;28;20416;-73